createdAt,value
2022-09-24T00:02:18.594Z,9.10
2022-09-24T00:04:47.208Z,9.10
2022-09-24T00:07:15.973Z,9.10
2022-09-24T00:09:44.801Z,9.00
2022-09-24T00:12:13.430Z,8.90
2022-09-24T00:14:43.959Z,8.90
2022-09-24T00:17:12.474Z,8.80
2022-09-24T00:19:43.074Z,8.70
2022-09-24T00:22:12.325Z,8.70
2022-09-24T00:24:59.789Z,8.60
2022-09-24T00:27:35.596Z,8.60
2022-09-24T00:30:06.678Z,8.50
2022-09-24T00:32:44.108Z,8.50
2022-09-24T00:35:12.456Z,8.50
2022-09-24T00:37:50.008Z,8.50
2022-09-24T00:40:19.309Z,8.50
2022-09-24T00:42:49.153Z,8.60
2022-09-24T00:45:19.634Z,8.60
2022-09-24T00:47:55.310Z,8.60
2022-09-24T00:50:42.160Z,8.60
2022-09-24T00:53:18.680Z,8.60
2022-09-24T00:55:55.059Z,8.60
2022-09-24T00:58:37.758Z,8.60
2022-09-24T01:01:30.786Z,8.60
2022-09-24T01:04:01.306Z,8.50
2022-09-24T01:06:38.081Z,8.50
2022-09-24T01:09:27.080Z,8.40
2022-09-24T01:12:29.280Z,8.40
2022-09-24T01:15:46.886Z,8.30
2022-09-24T01:19:21.119Z,8.30
2022-09-24T01:25:37.630Z,8.20
2022-09-24T01:28:56.454Z,8.10
2022-09-24T01:31:32.386Z,8.00
2022-09-24T01:34:21.313Z,8.00
2022-09-24T01:36:50.214Z,7.90
2022-09-24T01:39:18.974Z,7.90
2022-09-24T01:42:01.955Z,7.90
2022-09-24T01:44:36.160Z,7.80
2022-09-24T01:47:14.500Z,7.80
2022-09-24T01:49:41.805Z,7.80
2022-09-24T01:52:14.124Z,7.80
2022-09-24T01:54:52.391Z,7.80
2022-09-24T01:57:30.490Z,7.70
2022-09-24T02:00:12.915Z,7.70
2022-09-24T02:02:59.210Z,7.70
2022-09-24T02:05:58.219Z,7.70
2022-09-24T02:08:39.562Z,7.70
2022-09-24T02:11:17.925Z,7.70
2022-09-24T02:14:01.063Z,7.70
2022-09-24T02:16:36.161Z,7.70
2022-09-24T02:19:28.295Z,7.60
2022-09-24T02:21:55.634Z,7.60
2022-09-24T02:24:49.458Z,7.60
2022-09-24T02:27:18.358Z,7.50
2022-09-24T02:29:46.373Z,7.60
2022-09-24T02:32:18.407Z,7.70
2022-09-24T02:34:52.922Z,7.70
2022-09-24T02:37:23.631Z,7.50
2022-09-24T02:39:51.344Z,7.40
2022-09-24T02:42:20.354Z,7.30
2022-09-24T02:44:47.789Z,7.30
2022-09-24T02:47:15.174Z,7.20
2022-09-24T02:49:42.253Z,7.30
2022-09-24T02:52:10.495Z,7.30
2022-09-24T02:54:38.449Z,7.30
2022-09-24T02:57:06.005Z,7.30
2022-09-24T02:59:33.087Z,7.30
2022-09-24T03:02:00.267Z,7.20
2022-09-24T03:04:29.183Z,7.10
2022-09-24T03:06:56.638Z,7.10
2022-09-24T03:09:23.685Z,7.10
2022-09-24T03:11:50.720Z,7.20
2022-09-24T03:14:18.061Z,7.20
2022-09-24T03:16:51.099Z,7.10
2022-09-24T03:19:18.206Z,7.00
2022-09-24T03:21:45.216Z,7.20
2022-09-24T03:24:12.280Z,7.20
2022-09-24T03:26:43.244Z,7.20
2022-09-24T03:29:10.616Z,7.20
2022-09-24T03:31:37.793Z,7.20
2022-09-24T03:34:05.029Z,7.20
2022-09-24T03:36:32.145Z,7.30
2022-09-24T03:38:59.334Z,7.30
2022-09-24T03:41:27.797Z,7.30
2022-09-24T03:43:56.189Z,7.40
2022-09-24T03:46:25.051Z,7.30
2022-09-24T03:48:52.454Z,7.40
2022-09-24T03:51:20.295Z,7.50
2022-09-24T03:53:48.372Z,7.60
2022-09-24T03:56:16.138Z,7.50
2022-09-24T03:58:48.324Z,7.40
2022-09-24T04:01:21.584Z,7.20
2022-09-24T04:03:50.462Z,7.20
2022-09-24T04:06:23.409Z,7.20
2022-09-24T04:09:01.020Z,7.20
2022-09-24T04:11:28.095Z,7.30
2022-09-24T04:13:55.244Z,7.40
2022-09-24T04:16:22.979Z,7.40
2022-09-24T04:18:55.674Z,7.50
2022-09-24T04:21:23.139Z,7.50
2022-09-24T04:23:50.380Z,7.50
2022-09-24T04:26:17.520Z,7.50
2022-09-24T04:28:44.584Z,7.50
2022-09-24T04:31:11.713Z,7.50
2022-09-24T04:33:38.795Z,7.60
2022-09-24T04:36:05.883Z,7.50
2022-09-24T04:38:32.959Z,7.40
2022-09-24T04:41:07.843Z,7.30
2022-09-24T04:43:37.104Z,7.40
2022-09-24T04:46:08.811Z,7.40
2022-09-24T04:48:40.107Z,7.40
2022-09-24T04:51:08.962Z,7.20
2022-09-24T04:53:37.387Z,7.00
2022-09-24T04:56:05.559Z,7.00
2022-09-24T04:58:32.576Z,7.00
2022-09-24T05:01:14.022Z,6.90
2022-09-24T05:03:41.304Z,7.00
2022-09-24T05:06:08.454Z,7.10
2022-09-24T05:08:35.472Z,7.30
2022-09-24T05:11:02.870Z,7.60
2022-09-24T05:13:47.980Z,7.80
2022-09-24T05:16:27.038Z,7.90
2022-09-24T05:18:55.079Z,8.00
2022-09-24T05:21:22.524Z,8.00
2022-09-24T05:23:52.927Z,8.10
2022-09-24T05:26:41.405Z,8.10
2022-09-24T05:29:08.455Z,8.30
2022-09-24T05:31:35.638Z,8.40
2022-09-24T05:34:03.820Z,8.60
2022-09-24T05:36:31.445Z,8.80
2022-09-24T05:39:11.784Z,9.00
2022-09-24T05:41:45.609Z,9.10
2022-09-24T05:44:12.594Z,9.20
2022-09-24T05:46:39.632Z,9.20
2022-09-24T05:49:06.880Z,9.20
2022-09-24T05:51:52.083Z,9.20
2022-09-24T05:54:19.566Z,9.20
2022-09-24T05:56:47.450Z,9.10
2022-09-24T05:59:14.638Z,9.20
2022-09-24T06:01:41.813Z,9.10
2022-09-24T06:04:16.183Z,9.00
2022-09-24T06:06:43.706Z,9.10
2022-09-24T06:09:10.961Z,9.10
2022-09-24T06:11:40.870Z,9.00
2022-09-24T06:14:09.148Z,8.90
2022-09-24T06:16:36.832Z,9.10
2022-09-24T06:19:04.004Z,9.10
2022-09-24T06:21:31.179Z,9.40
2022-09-24T06:23:58.169Z,9.60
2022-09-24T06:26:26.469Z,9.70
2022-09-24T06:28:53.640Z,9.80
2022-09-24T06:31:21.193Z,10.00
2022-09-24T06:33:48.405Z,10.20
2022-09-24T06:36:15.589Z,10.30
2022-09-24T06:38:42.689Z,10.50
2022-09-24T06:41:10.304Z,10.40
2022-09-24T06:43:37.694Z,10.70
2022-09-24T06:46:05.082Z,10.90
2022-09-24T06:48:32.549Z,11.10
2022-09-24T06:51:00.001Z,11.30
2022-09-24T06:53:27.439Z,11.50
2022-09-24T06:55:59.934Z,11.70
2022-09-24T06:58:27.795Z,12.00
2022-09-24T07:01:00.539Z,12.00
2022-09-24T07:03:29.935Z,12.20
2022-09-24T07:06:04.169Z,12.20
2022-09-24T07:08:32.034Z,12.40
2022-09-24T07:11:00.489Z,12.60
2022-09-24T07:13:28.058Z,12.70
2022-09-24T07:15:55.254Z,12.80
2022-09-24T07:18:22.486Z,13.00
2022-09-24T07:20:56.844Z,13.30
2022-09-24T07:23:28.023Z,13.40
2022-09-24T07:26:11.441Z,13.80
2022-09-24T07:28:47.716Z,14.30
2022-09-24T07:31:14.843Z,15.10
2022-09-24T07:33:41.934Z,15.60
2022-09-24T07:36:09.129Z,16.20
2022-09-24T07:38:36.603Z,17.00
2022-09-24T07:41:04.808Z,17.70
2022-09-24T07:43:47.399Z,18.50
2022-09-24T07:46:17.613Z,19.20
2022-09-24T07:49:03.275Z,19.80
2022-09-24T07:51:36.655Z,20.30
2022-09-24T07:54:03.659Z,20.70
2022-09-24T07:56:32.544Z,20.90
2022-09-24T07:58:59.679Z,21.00
2022-09-24T08:01:27.922Z,20.90
2022-09-24T08:03:55.186Z,21.30
2022-09-24T08:06:23.383Z,21.50
2022-09-24T08:08:53.086Z,22.20
2022-09-24T08:11:21.643Z,22.40
2022-09-24T08:13:48.999Z,22.00
2022-09-24T08:16:16.636Z,22.30
2022-09-24T08:18:44.309Z,22.10
2022-09-24T08:21:13.407Z,21.80
2022-09-24T08:23:40.781Z,21.40
2022-09-24T08:26:08.403Z,20.80
2022-09-24T08:28:36.194Z,20.00
2022-09-24T08:31:09.118Z,19.70
2022-09-24T08:33:36.911Z,19.70
2022-09-24T08:36:06.409Z,19.50
2022-09-24T08:38:33.804Z,19.70
2022-09-24T08:41:13.009Z,19.80
2022-09-24T08:43:58.681Z,19.60
2022-09-24T08:46:58.957Z,19.60
2022-09-24T08:49:30.723Z,19.50
2022-09-24T08:52:13.445Z,19.50
2022-09-24T08:54:42.360Z,19.50
2022-09-24T08:57:18.278Z,19.60
2022-09-24T08:59:50.719Z,19.60
2022-09-24T09:03:05.406Z,19.50
2022-09-24T09:05:35.315Z,19.40
2022-09-24T09:08:33.753Z,19.30
2022-09-24T09:11:03.656Z,19.10
2022-09-24T09:13:40.399Z,19.00
2022-09-24T09:16:23.380Z,19.10
2022-09-24T09:18:53.868Z,19.10
2022-09-24T09:21:37.082Z,19.00
2022-09-24T09:24:05.658Z,19.00
2022-09-24T09:26:32.838Z,19.10
2022-09-24T09:29:02.186Z,19.10
2022-09-24T09:31:36.972Z,19.00
2022-09-24T09:34:06.914Z,18.90
2022-09-24T09:36:34.123Z,18.90
2022-09-24T09:39:22.609Z,18.70
2022-09-24T09:42:27.364Z,18.40
2022-09-24T09:44:54.899Z,18.40
2022-09-24T09:47:41.756Z,18.50
2022-09-24T09:50:24.127Z,18.50
2022-09-24T09:52:51.213Z,18.50
2022-09-24T09:55:27.418Z,18.90
2022-09-24T09:58:22.298Z,19.10
2022-09-24T10:00:49.979Z,19.40
2022-09-24T10:03:32.926Z,19.60
2022-09-24T10:06:03.625Z,19.80
2022-09-24T10:08:30.754Z,19.70
2022-09-24T10:10:59.920Z,19.60
2022-09-24T10:13:28.393Z,19.80
2022-09-24T10:15:59.869Z,19.70
2022-09-24T10:18:32.947Z,19.90
2022-09-24T10:21:03.279Z,20.00
2022-09-24T10:23:37.641Z,20.00
2022-09-24T10:26:06.089Z,20.10
2022-09-24T10:28:56.135Z,20.00
2022-09-24T10:31:25.677Z,20.10
2022-09-24T10:33:55.717Z,20.00
2022-09-24T10:36:30.791Z,19.90
2022-09-24T10:39:15.676Z,20.00
2022-09-24T10:41:51.013Z,20.20
2022-09-24T10:44:19.529Z,20.20
2022-09-24T10:47:05.341Z,20.20
2022-09-24T10:49:55.234Z,20.40
2022-09-24T10:52:49.833Z,20.20
2022-09-24T10:55:52.576Z,20.30
2022-09-24T10:58:32.913Z,20.20
2022-09-24T11:01:11.403Z,19.90
2022-09-24T11:04:30.448Z,20.00
2022-09-24T11:07:21.995Z,20.00
2022-09-24T11:10:27.968Z,20.00
2022-09-24T11:13:40.670Z,20.00
2022-09-24T11:16:31.986Z,20.20
2022-09-24T11:18:59.074Z,20.00
2022-09-24T11:21:43.743Z,20.00
2022-09-24T11:24:30.475Z,19.90
2022-09-24T11:27:34.231Z,19.90
2022-09-24T11:30:25.184Z,19.80
2022-09-24T11:33:01.771Z,20.00
2022-09-24T11:35:53.575Z,20.20
2022-09-24T11:38:29.314Z,20.30
2022-09-24T11:41:14.639Z,20.30
2022-09-24T11:43:52.310Z,20.20
2022-09-24T11:46:51.714Z,20.20
2022-09-24T11:49:27.799Z,20.30
2022-09-24T11:52:24.079Z,20.40
2022-09-24T11:55:02.776Z,20.50
2022-09-24T11:57:35.309Z,20.60
2022-09-24T12:00:08.186Z,20.50
2022-09-24T12:02:42.114Z,20.50
2022-09-24T12:05:14.952Z,20.40
2022-09-24T12:08:12.671Z,20.50
2022-09-24T12:10:56.033Z,20.50
2022-09-24T12:13:27.718Z,20.50
2022-09-24T12:16:20.060Z,20.50
2022-09-24T12:19:00.115Z,20.60
2022-09-24T12:21:34.134Z,20.60
2022-09-24T12:24:06.349Z,20.60
2022-09-24T12:26:38.399Z,20.60
2022-09-24T12:29:52.380Z,20.60
2022-09-24T12:32:49.929Z,20.70
2022-09-24T12:35:48.534Z,20.90
2022-09-24T12:38:25.923Z,20.90
2022-09-24T12:41:34.226Z,20.80
2022-09-24T12:44:10.423Z,20.80
2022-09-24T12:46:49.432Z,20.70
2022-09-24T12:49:25.719Z,20.50
2022-09-24T12:51:54.629Z,20.30
2022-09-24T12:54:36.278Z,20.30
2022-09-24T12:57:21.317Z,20.20
2022-09-24T12:59:58.209Z,20.20
2022-09-24T13:02:33.374Z,20.30
2022-09-24T13:05:14.004Z,20.30
2022-09-24T13:07:41.648Z,20.30
2022-09-24T13:10:18.154Z,20.30
2022-09-24T13:12:46.689Z,19.90
2022-09-24T13:15:28.789Z,19.60
2022-09-24T13:18:13.969Z,19.40
2022-09-24T13:20:49.913Z,19.30
2022-09-24T13:23:23.198Z,19.30
2022-09-24T13:26:07.490Z,19.30
2022-09-24T13:28:52.784Z,19.50
2022-09-24T13:31:29.129Z,19.50
2022-09-24T13:34:14.126Z,19.50
2022-09-24T13:37:02.234Z,19.30
2022-09-24T13:39:52.263Z,19.30
2022-09-24T13:42:58.433Z,19.30
2022-09-24T13:45:25.936Z,19.50
2022-09-24T13:47:59.889Z,19.60
2022-09-24T13:50:51.984Z,19.70
2022-09-24T13:53:23.784Z,19.50
2022-09-24T13:55:57.390Z,19.40
2022-09-24T13:58:36.359Z,19.40
2022-09-24T14:01:14.737Z,19.40
2022-09-24T14:03:42.924Z,19.50
2022-09-24T14:06:15.408Z,19.60
2022-09-24T14:08:45.445Z,19.60
2022-09-24T14:11:17.079Z,19.70
2022-09-24T14:13:47.509Z,19.80
2022-09-24T14:16:20.454Z,19.80
2022-09-24T14:18:48.434Z,19.80
2022-09-24T14:21:33.072Z,19.90
2022-09-24T14:24:20.555Z,20.00
2022-09-24T14:27:02.148Z,20.00
2022-09-24T14:29:52.558Z,19.90
2022-09-24T14:32:42.921Z,20.00
2022-09-24T14:35:29.116Z,20.00
2022-09-24T14:38:34.569Z,20.00
2022-09-24T14:41:28.027Z,20.10
2022-09-24T14:44:22.229Z,20.00
2022-09-24T14:46:58.975Z,19.90
2022-09-24T14:49:32.873Z,19.70
2022-09-24T14:52:02.563Z,19.70
2022-09-24T14:54:35.960Z,19.70
2022-09-24T14:57:35.734Z,19.60
2022-09-24T15:00:02.968Z,19.50
2022-09-24T15:02:32.009Z,19.50
2022-09-24T15:05:06.214Z,19.50
2022-09-24T15:07:35.887Z,19.40
2022-09-24T15:10:05.570Z,19.20
2022-09-24T15:12:37.169Z,19.10
2022-09-24T15:15:17.849Z,19.00
2022-09-24T15:17:47.477Z,18.80
2022-09-24T15:20:14.835Z,18.70
2022-09-24T15:22:42.011Z,18.60
2022-09-24T15:25:09.341Z,18.40
2022-09-24T15:27:40.363Z,18.40
2022-09-24T15:30:11.284Z,18.30
2022-09-24T15:32:38.649Z,18.20
2022-09-24T15:35:09.678Z,18.10
2022-09-24T15:37:40.653Z,18.00
2022-09-24T15:40:25.757Z,17.90
2022-09-24T15:42:53.075Z,17.90
2022-09-24T15:45:22.974Z,17.90
2022-09-24T15:47:51.452Z,17.80
2022-09-24T15:50:20.354Z,17.80
2022-09-24T15:52:52.263Z,17.80
2022-09-24T15:55:21.879Z,17.70
2022-09-24T15:57:48.974Z,17.60
2022-09-24T16:00:19.229Z,17.50
2022-09-24T16:02:50.898Z,17.40
2022-09-24T16:05:19.001Z,17.30
2022-09-24T16:07:50.943Z,17.20
2022-09-24T16:10:18.515Z,17.10
2022-09-24T16:12:45.590Z,17.00
2022-09-24T16:15:14.543Z,16.90
2022-09-24T16:17:41.914Z,16.90
2022-09-24T16:20:10.216Z,16.80
2022-09-24T16:22:37.211Z,16.80
2022-09-24T16:25:04.689Z,16.70
2022-09-24T16:27:31.754Z,16.70
2022-09-24T16:29:58.881Z,16.70
2022-09-24T16:32:25.959Z,16.70
2022-09-24T16:34:55.004Z,16.70
2022-09-24T16:37:22.061Z,16.60
2022-09-24T16:39:49.155Z,16.50
2022-09-24T16:42:16.276Z,16.50
2022-09-24T16:44:43.335Z,16.50
2022-09-24T16:47:10.444Z,16.50
2022-09-24T16:49:37.554Z,16.60
2022-09-24T16:52:04.594Z,16.60
2022-09-24T16:54:32.926Z,16.50
2022-09-24T16:57:02.016Z,16.50
2022-09-24T16:59:29.071Z,16.30
2022-09-24T17:01:56.283Z,16.30
2022-09-24T17:04:23.489Z,16.10
2022-09-24T17:06:50.685Z,16.00
2022-09-24T17:09:36.174Z,15.90
2022-09-24T17:12:03.217Z,15.90
2022-09-24T17:14:30.325Z,15.90
2022-09-24T17:16:57.364Z,16.00
2022-09-24T17:19:24.406Z,15.90
2022-09-24T17:21:52.292Z,15.70
2022-09-24T17:24:22.073Z,15.50
2022-09-24T17:26:49.570Z,15.30
2022-09-24T17:29:21.002Z,15.20
2022-09-24T17:31:49.428Z,15.10
2022-09-24T17:34:16.572Z,15.10
2022-09-24T17:36:43.680Z,15.10
2022-09-24T17:39:13.346Z,15.20
2022-09-24T17:41:41.739Z,15.20
2022-09-24T17:44:11.114Z,15.30
2022-09-24T17:46:38.312Z,15.20
2022-09-24T17:49:06.053Z,15.30
2022-09-24T17:51:36.555Z,15.30
2022-09-24T17:54:09.734Z,15.30
2022-09-24T17:56:40.619Z,15.20
2022-09-24T17:59:09.744Z,14.90
2022-09-24T18:01:38.996Z,14.80
2022-09-24T18:04:09.534Z,14.70
2022-09-24T18:06:38.396Z,14.60
2022-09-24T18:09:06.187Z,14.60
2022-09-24T18:11:39.488Z,14.80
2022-09-24T18:14:06.576Z,14.90
2022-09-24T18:16:34.689Z,14.90
2022-09-24T18:19:02.964Z,14.80
2022-09-24T18:21:30.465Z,14.60
2022-09-24T18:23:59.373Z,14.50
2022-09-24T18:26:36.209Z,14.40
2022-09-24T18:29:08.403Z,14.40
2022-09-24T18:31:36.128Z,14.30
2022-09-24T18:34:07.316Z,14.30
2022-09-24T18:36:37.323Z,14.20
2022-09-24T18:39:06.733Z,14.20
2022-09-24T18:41:34.600Z,14.20
2022-09-24T18:44:01.933Z,14.20
2022-09-24T18:46:31.181Z,14.20
2022-09-24T18:49:00.109Z,14.20
2022-09-24T18:51:30.714Z,14.20
2022-09-24T18:57:45.360Z,13.90
2022-09-24T19:00:32.713Z,13.80
2022-09-24T19:03:00.360Z,13.80
2022-09-24T19:05:28.985Z,13.80
2022-09-24T19:07:56.095Z,13.90
2022-09-24T19:10:23.099Z,13.80
2022-09-24T19:12:53.804Z,13.70
2022-09-24T19:15:20.899Z,13.50
2022-09-24T19:17:49.123Z,13.40
2022-09-24T19:20:16.159Z,13.30
2022-09-24T19:22:48.385Z,13.30
2022-09-24T19:25:15.879Z,13.30
2022-09-24T19:27:43.354Z,13.30
2022-09-24T19:30:10.759Z,13.20
2022-09-24T19:32:40.170Z,13.20
2022-09-24T19:35:07.868Z,13.10
2022-09-24T19:37:34.978Z,13.10
2022-09-24T19:40:02.123Z,13.30
2022-09-24T19:42:31.580Z,13.30
2022-09-24T19:44:59.054Z,13.40
2022-09-24T19:47:26.112Z,13.40
2022-09-24T19:49:53.225Z,13.40
2022-09-24T19:52:20.262Z,13.40
2022-09-24T19:54:51.234Z,13.40
2022-09-24T19:57:19.254Z,13.50
2022-09-24T19:59:46.415Z,13.30
2022-09-24T20:02:14.454Z,13.20
2022-09-24T20:04:41.576Z,13.10
2022-09-24T20:07:08.802Z,13.00
2022-09-24T20:09:35.876Z,13.10
2022-09-24T20:12:03.586Z,13.20
2022-09-24T20:14:33.672Z,13.20
2022-09-24T20:17:00.933Z,13.20
2022-09-24T20:19:28.053Z,13.10
2022-09-24T20:21:57.611Z,13.00
2022-09-24T20:24:24.779Z,13.00
2022-09-24T20:27:10.779Z,12.90
2022-09-24T20:29:37.776Z,12.90
2022-09-24T20:32:04.885Z,12.90
2022-09-24T20:34:35.818Z,12.90
2022-09-24T20:37:04.668Z,12.90
2022-09-24T20:39:32.723Z,12.90
2022-09-24T20:42:06.200Z,12.90
2022-09-24T20:44:33.906Z,12.80
2022-09-24T20:47:01.672Z,12.80
2022-09-24T20:49:30.073Z,12.70
2022-09-24T20:51:57.969Z,12.70
2022-09-24T20:54:28.481Z,12.70
2022-09-24T20:56:56.364Z,12.80
2022-09-24T20:59:25.845Z,12.70
2022-09-24T21:01:54.307Z,12.80
2022-09-24T21:04:22.522Z,12.70
2022-09-24T21:06:50.063Z,12.60
2022-09-24T21:09:17.538Z,12.50
2022-09-24T21:11:44.804Z,12.50
2022-09-24T21:14:12.961Z,12.50
2022-09-24T21:16:40.737Z,12.40
2022-09-24T21:19:08.260Z,12.40
2022-09-24T21:21:39.350Z,12.30
2022-09-24T21:24:10.432Z,12.30
2022-09-24T21:26:39.254Z,12.20
2022-09-24T21:29:18.214Z,12.20
2022-09-24T21:31:47.360Z,12.20
2022-09-24T21:34:24.368Z,12.20
2022-09-24T21:37:07.200Z,12.20
2022-09-24T21:39:43.919Z,12.20
2022-09-24T21:42:25.098Z,12.20
2022-09-24T21:44:54.244Z,12.10
2022-09-24T21:47:23.860Z,12.10
2022-09-24T21:49:55.554Z,12.00
2022-09-24T21:52:26.858Z,11.90
2022-09-24T21:54:55.944Z,11.90
2022-09-24T21:57:23.007Z,11.80
2022-09-24T22:00:01.893Z,11.70
2022-09-24T22:02:29.438Z,11.40
2022-09-24T22:05:00.993Z,11.10
2022-09-24T22:07:29.154Z,10.70
2022-09-24T22:09:59.325Z,10.50
2022-09-24T22:12:29.306Z,10.30
2022-09-24T22:15:08.102Z,10.40
2022-09-24T22:17:36.429Z,10.50
2022-09-24T22:20:06.709Z,10.50
2022-09-24T22:22:40.799Z,10.70
2022-09-24T22:25:09.361Z,10.90
2022-09-24T22:27:37.498Z,11.10
2022-09-24T22:30:05.919Z,11.30
2022-09-24T22:32:35.060Z,11.50
2022-09-24T22:35:24.349Z,11.50
2022-09-24T22:37:56.996Z,11.50
2022-09-24T22:40:29.240Z,11.50
2022-09-24T22:42:57.614Z,11.40
2022-09-24T22:45:29.174Z,11.50
2022-09-24T22:48:04.219Z,11.40
2022-09-24T22:50:31.547Z,11.40
2022-09-24T22:53:02.457Z,11.40
2022-09-24T22:55:30.993Z,11.40
2022-09-24T22:58:01.069Z,11.30
2022-09-24T23:00:28.119Z,11.30
2022-09-24T23:02:56.860Z,11.30
2022-09-24T23:05:27.486Z,11.40
2022-09-24T23:07:56.754Z,11.30
2022-09-24T23:10:24.994Z,11.30
2022-09-24T23:12:53.187Z,11.30
2022-09-24T23:15:28.098Z,11.40
2022-09-24T23:17:56.578Z,11.50
2022-09-24T23:20:24.643Z,11.50
2022-09-24T23:22:51.659Z,11.50
2022-09-24T23:25:20.874Z,11.50
2022-09-24T23:27:49.138Z,11.30
2022-09-24T23:30:18.555Z,11.30
2022-09-24T23:32:47.023Z,11.20
2022-09-24T23:35:14.124Z,11.20
2022-09-24T23:37:42.418Z,11.10
2022-09-24T23:40:11.834Z,11.10
2022-09-24T23:42:41.173Z,11.20
2022-09-24T23:45:12.338Z,11.30
2022-09-24T23:48:00.823Z,11.30
2022-09-24T23:50:36.354Z,11.40
2022-09-24T23:53:05.274Z,11.20
2022-09-24T23:55:33.658Z,11.10
2022-09-24T23:58:01.909Z,11.00
